sensor_id;sensor_type;location;lat;lon;timestamp;temperature;humidity
5779;DHT22;2916;49.798;10.022;2023-06-22T00:00:14;20.70;99.90
5779;DHT22;2916;49.798;10.022;2023-06-22T00:02:42;20.70;99.90
5779;DHT22;2916;49.798;10.022;2023-06-22T00:05:09;20.70;99.90
5779;DHT22;2916;49.798;10.022;2023-06-22T00:07:37;20.70;99.90
5779;DHT22;2916;49.798;10.022;2023-06-22T00:10:06;20.60;99.90
5779;DHT22;2916;49.798;10.022;2023-06-22T00:12:33;20.70;99.90
5779;DHT22;2916;49.798;10.022;2023-06-22T00:15:01;20.70;99.90
5779;DHT22;2916;49.798;10.022;2023-06-22T00:17:28;20.60;99.90
5779;DHT22;2916;49.798;10.022;2023-06-22T00:19:55;20.60;99.90
5779;DHT22;2916;49.798;10.022;2023-06-22T00:22:24;20.60;99.90
5779;DHT22;2916;49.798;10.022;2023-06-22T00:24:56;20.60;99.90
5779;DHT22;2916;49.798;10.022;2023-06-22T00:27:23;20.60;99.90
5779;DHT22;2916;49.798;10.022;2023-06-22T00:29:50;20.60;99.90
5779;DHT22;2916;49.798;10.022;2023-06-22T00:32:17;20.60;99.90
5779;DHT22;2916;49.798;10.022;2023-06-22T00:34:45;20.50;99.90
5779;DHT22;2916;49.798;10.022;2023-06-22T00:37:12;20.50;99.90
5779;DHT22;2916;49.798;10.022;2023-06-22T00:39:39;20.40;99.90
5779;DHT22;2916;49.798;10.022;2023-06-22T00:42:08;20.40;99.90
5779;DHT22;2916;49.798;10.022;2023-06-22T00:44:35;20.40;99.90
5779;DHT22;2916;49.798;10.022;2023-06-22T00:47:03;20.20;99.90
5779;DHT22;2916;49.798;10.022;2023-06-22T00:49:32;20.20;99.90
5779;DHT22;2916;49.798;10.022;2023-06-22T00:51:59;20.20;99.90
5779;DHT22;2916;49.798;10.022;2023-06-22T00:54:27;20.00;99.90
5779;DHT22;2916;49.798;10.022;2023-06-22T00:56:55;20.00;99.90
5779;DHT22;2916;49.798;10.022;2023-06-22T00:59:25;19.90;99.90
5779;DHT22;2916;49.798;10.022;2023-06-22T01:01:54;19.90;99.90
5779;DHT22;2916;49.798;10.022;2023-06-22T01:04:24;19.90;99.90
5779;DHT22;2916;49.798;10.022;2023-06-22T01:07:07;19.90;99.90
5779;DHT22;2916;49.798;10.022;2023-06-22T01:09:47;19.80;99.90
5779;DHT22;2916;49.798;10.022;2023-06-22T01:12:23;19.80;99.90
5779;DHT22;2916;49.798;10.022;2023-06-22T01:14:58;19.80;99.90
5779;DHT22;2916;49.798;10.022;2023-06-22T01:17:32;19.90;99.90
5779;DHT22;2916;49.798;10.022;2023-06-22T01:20:01;19.90;99.90
5779;DHT22;2916;49.798;10.022;2023-06-22T01:22:33;19.90;99.90
5779;DHT22;2916;49.798;10.022;2023-06-22T01:25:19;20.00;99.90
5779;DHT22;2916;49.798;10.022;2023-06-22T01:27:56;20.00;99.90
5779;DHT22;2916;49.798;10.022;2023-06-22T01:30:32;20.00;99.90
5779;DHT22;2916;49.798;10.022;2023-06-22T01:33:01;19.90;99.90
5779;DHT22;2916;49.798;10.022;2023-06-22T01:35:32;20.00;99.90
5779;DHT22;2916;49.798;10.022;2023-06-22T01:38:00;20.00;99.90
5779;DHT22;2916;49.798;10.022;2023-06-22T01:40:28;19.90;99.90
5779;DHT22;2916;49.798;10.022;2023-06-22T01:42:59;19.90;99.90
5779;DHT22;2916;49.798;10.022;2023-06-22T01:45:27;19.90;99.90
5779;DHT22;2916;49.798;10.022;2023-06-22T01:47:56;19.90;99.90
5779;DHT22;2916;49.798;10.022;2023-06-22T01:50:24;19.90;99.90
5779;DHT22;2916;49.798;10.022;2023-06-22T01:52:52;19.90;99.90
5779;DHT22;2916;49.798;10.022;2023-06-22T01:55:19;19.90;99.90
5779;DHT22;2916;49.798;10.022;2023-06-22T01:57:46;19.90;99.90
5779;DHT22;2916;49.798;10.022;2023-06-22T02:00:18;19.90;99.90
5779;DHT22;2916;49.798;10.022;2023-06-22T02:02:53;19.90;99.90
5779;DHT22;2916;49.798;10.022;2023-06-22T02:05:29;19.90;99.90
5779;DHT22;2916;49.798;10.022;2023-06-22T02:08:06;19.90;99.90
5779;DHT22;2916;49.798;10.022;2023-06-22T02:10:38;20.00;99.90
5779;DHT22;2916;49.798;10.022;2023-06-22T02:13:09;20.00;99.90
5779;DHT22;2916;49.798;10.022;2023-06-22T02:15:38;20.10;99.90
5779;DHT22;2916;49.798;10.022;2023-06-22T02:18:07;20.00;99.90
5779;DHT22;2916;49.798;10.022;2023-06-22T02:20:36;20.00;99.90
5779;DHT22;2916;49.798;10.022;2023-06-22T02:23:04;20.10;99.90
5779;DHT22;2916;49.798;10.022;2023-06-22T02:25:31;20.00;99.90
5779;DHT22;2916;49.798;10.022;2023-06-22T02:27:59;20.00;99.90
5779;DHT22;2916;49.798;10.022;2023-06-22T02:30:26;20.00;99.90
5779;DHT22;2916;49.798;10.022;2023-06-22T02:32:53;20.00;99.90
5779;DHT22;2916;49.798;10.022;2023-06-22T02:35:25;19.90;99.90
5779;DHT22;2916;49.798;10.022;2023-06-22T02:37:57;20.00;99.90
5779;DHT22;2916;49.798;10.022;2023-06-22T02:40:25;19.90;99.90
5779;DHT22;2916;49.798;10.022;2023-06-22T02:42:52;19.70;99.90
5779;DHT22;2916;49.798;10.022;2023-06-22T02:45:19;19.70;99.90
5779;DHT22;2916;49.798;10.022;2023-06-22T02:47:47;19.70;99.90
5779;DHT22;2916;49.798;10.022;2023-06-22T02:50:14;19.60;99.90
5779;DHT22;2916;49.798;10.022;2023-06-22T02:52:43;19.40;99.90
5779;DHT22;2916;49.798;10.022;2023-06-22T02:55:10;19.40;99.90
5779;DHT22;2916;49.798;10.022;2023-06-22T02:57:37;19.50;99.90
5779;DHT22;2916;49.798;10.022;2023-06-22T03:00:10;19.50;99.90
5779;DHT22;2916;49.798;10.022;2023-06-22T03:02:42;19.50;99.90
5779;DHT22;2916;49.798;10.022;2023-06-22T03:05:10;19.50;99.90
5779;DHT22;2916;49.798;10.022;2023-06-22T03:07:40;19.50;99.90
5779;DHT22;2916;49.798;10.022;2023-06-22T03:10:10;19.60;99.90
5779;DHT22;2916;49.798;10.022;2023-06-22T03:12:38;19.50;99.90
5779;DHT22;2916;49.798;10.022;2023-06-22T03:15:08;19.50;99.90
5779;DHT22;2916;49.798;10.022;2023-06-22T03:17:37;19.50;99.90
5779;DHT22;2916;49.798;10.022;2023-06-22T03:20:06;19.50;99.90
5779;DHT22;2916;49.798;10.022;2023-06-22T03:22:37;19.50;99.90
5779;DHT22;2916;49.798;10.022;2023-06-22T03:25:05;19.50;99.90
5779;DHT22;2916;49.798;10.022;2023-06-22T03:27:40;19.50;99.90
5779;DHT22;2916;49.798;10.022;2023-06-22T03:30:09;19.50;99.90
5779;DHT22;2916;49.798;10.022;2023-06-22T03:32:37;19.40;99.90
5779;DHT22;2916;49.798;10.022;2023-06-22T03:35:05;19.50;99.90
5779;DHT22;2916;49.798;10.022;2023-06-22T03:37:33;19.50;99.90
5779;DHT22;2916;49.798;10.022;2023-06-22T03:40:00;19.50;99.90
5779;DHT22;2916;49.798;10.022;2023-06-22T03:42:30;19.60;99.90
5779;DHT22;2916;49.798;10.022;2023-06-22T03:44:59;19.60;99.90
5779;DHT22;2916;49.798;10.022;2023-06-22T03:47:27;19.60;99.90
5779;DHT22;2916;49.798;10.022;2023-06-22T03:49:54;19.70;99.90
5779;DHT22;2916;49.798;10.022;2023-06-22T03:52:21;19.70;99.90
5779;DHT22;2916;49.798;10.022;2023-06-22T03:54:49;19.70;99.90
5779;DHT22;2916;49.798;10.022;2023-06-22T03:57:16;19.70;99.90
5779;DHT22;2916;49.798;10.022;2023-06-22T03:59:43;19.80;99.90
5779;DHT22;2916;49.798;10.022;2023-06-22T04:02:11;19.80;99.90
5779;DHT22;2916;49.798;10.022;2023-06-22T04:04:39;19.80;99.90
5779;DHT22;2916;49.798;10.022;2023-06-22T04:07:06;19.90;99.90
5779;DHT22;2916;49.798;10.022;2023-06-22T04:09:33;20.00;99.90
5779;DHT22;2916;49.798;10.022;2023-06-22T04:12:01;19.90;99.90
5779;DHT22;2916;49.798;10.022;2023-06-22T04:14:28;20.00;99.90
5779;DHT22;2916;49.798;10.022;2023-06-22T04:16:56;20.00;99.90
5779;DHT22;2916;49.798;10.022;2023-06-22T04:19:25;20.10;99.90
5779;DHT22;2916;49.798;10.022;2023-06-22T04:21:52;20.30;99.90
5779;DHT22;2916;49.798;10.022;2023-06-22T04:24:19;20.40;99.90
5779;DHT22;2916;49.798;10.022;2023-06-22T04:26:46;20.50;99.90
5779;DHT22;2916;49.798;10.022;2023-06-22T04:29:14;20.60;99.90
5779;DHT22;2916;49.798;10.022;2023-06-22T04:31:41;20.70;99.90
5779;DHT22;2916;49.798;10.022;2023-06-22T04:34:08;20.70;99.90
5779;DHT22;2916;49.798;10.022;2023-06-22T04:36:39;20.80;99.90
5779;DHT22;2916;49.798;10.022;2023-06-22T04:39:08;20.90;99.90
5779;DHT22;2916;49.798;10.022;2023-06-22T04:41:36;21.00;99.90
5779;DHT22;2916;49.798;10.022;2023-06-22T04:44:10;21.10;99.90
5779;DHT22;2916;49.798;10.022;2023-06-22T04:46:39;21.10;99.90
5779;DHT22;2916;49.798;10.022;2023-06-22T04:49:07;21.20;99.90
5779;DHT22;2916;49.798;10.022;2023-06-22T04:51:39;21.30;99.90
5779;DHT22;2916;49.798;10.022;2023-06-22T04:54:08;21.40;99.90
5779;DHT22;2916;49.798;10.022;2023-06-22T04:56:36;21.50;99.90
5779;DHT22;2916;49.798;10.022;2023-06-22T04:59:06;21.60;99.90
5779;DHT22;2916;49.798;10.022;2023-06-22T05:01:38;21.90;99.90
5779;DHT22;2916;49.798;10.022;2023-06-22T05:04:05;22.20;99.90
5779;DHT22;2916;49.798;10.022;2023-06-22T05:06:33;22.40;99.90
5779;DHT22;2916;49.798;10.022;2023-06-22T05:09:02;22.60;99.90
5779;DHT22;2916;49.798;10.022;2023-06-22T05:11:31;22.90;99.90
5779;DHT22;2916;49.798;10.022;2023-06-22T05:13:58;23.20;99.90
5779;DHT22;2916;49.798;10.022;2023-06-22T05:16:25;23.50;99.90
5779;DHT22;2916;49.798;10.022;2023-06-22T05:18:53;23.80;99.90
5779;DHT22;2916;49.798;10.022;2023-06-22T05:21:26;24.10;99.90
5779;DHT22;2916;49.798;10.022;2023-06-22T05:23:54;24.50;99.90
5779;DHT22;2916;49.798;10.022;2023-06-22T05:26:23;24.90;99.90
5779;DHT22;2916;49.798;10.022;2023-06-22T05:28:51;25.20;99.90
5779;DHT22;2916;49.798;10.022;2023-06-22T05:31:19;25.40;99.90
5779;DHT22;2916;49.798;10.022;2023-06-22T05:33:47;25.80;99.90
5779;DHT22;2916;49.798;10.022;2023-06-22T05:36:15;26.20;99.90
5779;DHT22;2916;49.798;10.022;2023-06-22T05:38:42;26.40;99.90
5779;DHT22;2916;49.798;10.022;2023-06-22T05:41:09;25.70;99.90
5779;DHT22;2916;49.798;10.022;2023-06-22T05:43:38;25.60;99.90
5779;DHT22;2916;49.798;10.022;2023-06-22T05:46:05;25.00;99.90
5779;DHT22;2916;49.798;10.022;2023-06-22T05:48:32;25.50;99.90
5779;DHT22;2916;49.798;10.022;2023-06-22T05:51:00;25.80;99.90
5779;DHT22;2916;49.798;10.022;2023-06-22T05:53:27;25.70;99.90
5779;DHT22;2916;49.798;10.022;2023-06-22T05:55:54;26.30;99.90
5779;DHT22;2916;49.798;10.022;2023-06-22T05:58:21;26.60;99.90
5779;DHT22;2916;49.798;10.022;2023-06-22T06:00:50;27.10;99.90
5779;DHT22;2916;49.798;10.022;2023-06-22T06:03:17;27.60;99.90
5779;DHT22;2916;49.798;10.022;2023-06-22T06:05:44;27.90;99.90
5779;DHT22;2916;49.798;10.022;2023-06-22T06:08:12;28.30;99.90
5779;DHT22;2916;49.798;10.022;2023-06-22T06:10:39;28.50;99.90
5779;DHT22;2916;49.798;10.022;2023-06-22T06:13:06;27.90;99.90
5779;DHT22;2916;49.798;10.022;2023-06-22T06:15:34;27.60;99.90
5779;DHT22;2916;49.798;10.022;2023-06-22T06:18:03;28.40;99.90
5779;DHT22;2916;49.798;10.022;2023-06-22T06:20:32;28.70;95.30
5779;DHT22;2916;49.798;10.022;2023-06-22T06:22:59;28.80;99.90
5779;DHT22;2916;49.798;10.022;2023-06-22T06:25:27;28.10;99.90
5779;DHT22;2916;49.798;10.022;2023-06-22T06:27:54;27.40;99.90
5779;DHT22;2916;49.798;10.022;2023-06-22T06:30:22;28.30;99.90
5779;DHT22;2916;49.798;10.022;2023-06-22T06:32:49;28.70;95.10
5779;DHT22;2916;49.798;10.022;2023-06-22T06:35:18;28.40;94.60
5779;DHT22;2916;49.798;10.022;2023-06-22T06:37:49;29.00;93.40
5779;DHT22;2916;49.798;10.022;2023-06-22T06:40:17;28.00;96.40
5779;DHT22;2916;49.798;10.022;2023-06-22T06:42:46;27.70;98.50
5779;DHT22;2916;49.798;10.022;2023-06-22T06:45:16;28.10;83.80
5779;DHT22;2916;49.798;10.022;2023-06-22T06:47:45;28.60;74.10
5779;DHT22;2916;49.798;10.022;2023-06-22T06:50:13;27.70;97.00
5779;DHT22;2916;49.798;10.022;2023-06-22T06:52:42;28.00;91.40
5779;DHT22;2916;49.798;10.022;2023-06-22T06:55:10;28.10;72.80
5779;DHT22;2916;49.798;10.022;2023-06-22T06:57:39;28.00;76.80
5779;DHT22;2916;49.798;10.022;2023-06-22T07:00:09;28.70;65.70
5779;DHT22;2916;49.798;10.022;2023-06-22T07:02:39;28.90;46.10
5779;DHT22;2916;49.798;10.022;2023-06-22T07:05:08;28.70;32.40
5779;DHT22;2916;49.798;10.022;2023-06-22T07:07:37;28.90;34.00
5779;DHT22;2916;49.798;10.022;2023-06-22T07:10:07;28.20;55.10
5779;DHT22;2916;49.798;10.022;2023-06-22T07:12:34;28.40;56.90
5779;DHT22;2916;49.798;10.022;2023-06-22T07:15:02;28.90;55.00
5779;DHT22;2916;49.798;10.022;2023-06-22T07:17:31;28.90;29.10
5779;DHT22;2916;49.798;10.022;2023-06-22T07:19:58;28.30;35.40
5779;DHT22;2916;49.798;10.022;2023-06-22T07:22:25;28.70;25.90
5779;DHT22;2916;49.798;10.022;2023-06-22T07:24:52;28.30;39.10
5779;DHT22;2916;49.798;10.022;2023-06-22T07:27:21;28.10;45.50
5779;DHT22;2916;49.798;10.022;2023-06-22T07:29:48;28.60;28.60
5779;DHT22;2916;49.798;10.022;2023-06-22T07:32:16;28.70;17.30
5779;DHT22;2916;49.798;10.022;2023-06-22T07:34:43;28.30;27.90
5779;DHT22;2916;49.798;10.022;2023-06-22T07:37:10;28.80;29.30
5779;DHT22;2916;49.798;10.022;2023-06-22T07:39:37;28.70;14.90
5779;DHT22;2916;49.798;10.022;2023-06-22T07:42:05;28.70;19.30
5779;DHT22;2916;49.798;10.022;2023-06-22T07:44:33;28.70;9.90
5779;DHT22;2916;49.798;10.022;2023-06-22T07:47:01;29.00;16.30
5779;DHT22;2916;49.798;10.022;2023-06-22T07:49:28;28.80;14.00
5779;DHT22;2916;49.798;10.022;2023-06-22T07:51:55;28.10;15.30
5779;DHT22;2916;49.798;10.022;2023-06-22T07:54:23;28.50;18.40
5779;DHT22;2916;49.798;10.022;2023-06-22T07:56:50;28.90;11.40
5779;DHT22;2916;49.798;10.022;2023-06-22T07:59:18;29.10;1.20
5779;DHT22;2916;49.798;10.022;2023-06-22T08:01:46;29.10;1.40
5779;DHT22;2916;49.798;10.022;2023-06-22T08:04:14;28.70;10.50
5779;DHT22;2916;49.798;10.022;2023-06-22T08:06:42;29.00;4.50
5779;DHT22;2916;49.798;10.022;2023-06-22T08:09:09;28.70;4.10
5779;DHT22;2916;49.798;10.022;2023-06-22T08:11:36;29.60;1.00
5779;DHT22;2916;49.798;10.022;2023-06-22T08:14:03;29.20;1.00
5779;DHT22;2916;49.798;10.022;2023-06-22T08:16:30;29.20;1.00
5779;DHT22;2916;49.798;10.022;2023-06-22T08:18:59;29.20;1.00
5779;DHT22;2916;49.798;10.022;2023-06-22T08:21:27;29.80;1.00
5779;DHT22;2916;49.798;10.022;2023-06-22T08:23:54;30.20;1.00
5779;DHT22;2916;49.798;10.022;2023-06-22T08:26:21;30.30;1.00
5779;DHT22;2916;49.798;10.022;2023-06-22T08:28:49;30.00;1.00
5779;DHT22;2916;49.798;10.022;2023-06-22T08:31:16;30.70;1.00
5779;DHT22;2916;49.798;10.022;2023-06-22T08:33:43;30.40;1.00
5779;DHT22;2916;49.798;10.022;2023-06-22T08:36:13;30.20;1.00
5779;DHT22;2916;49.798;10.022;2023-06-22T08:38:40;30.10;1.00
5779;DHT22;2916;49.798;10.022;2023-06-22T08:41:07;29.50;1.00
5779;DHT22;2916;49.798;10.022;2023-06-22T08:43:35;29.90;1.00
5779;DHT22;2916;49.798;10.022;2023-06-22T08:46:02;30.30;1.00
5779;DHT22;2916;49.798;10.022;2023-06-22T08:48:29;30.50;1.00
5779;DHT22;2916;49.798;10.022;2023-06-22T08:50:56;31.00;1.00
5779;DHT22;2916;49.798;10.022;2023-06-22T08:53:25;31.10;1.00
5779;DHT22;2916;49.798;10.022;2023-06-22T08:55:52;30.80;1.00
5779;DHT22;2916;49.798;10.022;2023-06-22T08:58:19;30.90;1.00
5779;DHT22;2916;49.798;10.022;2023-06-22T09:00:47;31.10;1.00
5779;DHT22;2916;49.798;10.022;2023-06-22T09:03:17;30.70;1.00
5779;DHT22;2916;49.798;10.022;2023-06-22T09:05:46;31.30;1.00
5779;DHT22;2916;49.798;10.022;2023-06-22T09:08:13;31.20;1.00
5779;DHT22;2916;49.798;10.022;2023-06-22T09:10:42;31.80;1.00
5779;DHT22;2916;49.798;10.022;2023-06-22T09:13:09;31.20;1.00
5779;DHT22;2916;49.798;10.022;2023-06-22T09:15:36;31.50;1.00
5779;DHT22;2916;49.798;10.022;2023-06-22T09:18:03;31.50;1.00
5779;DHT22;2916;49.798;10.022;2023-06-22T09:20:31;31.70;1.00
5779;DHT22;2916;49.798;10.022;2023-06-22T09:22:58;31.70;1.00
5779;DHT22;2916;49.798;10.022;2023-06-22T09:25:25;31.90;1.00
5779;DHT22;2916;49.798;10.022;2023-06-22T09:27:54;31.70;1.00
5779;DHT22;2916;49.798;10.022;2023-06-22T09:30:22;31.20;1.00
5779;DHT22;2916;49.798;10.022;2023-06-22T09:32:49;31.30;1.00
5779;DHT22;2916;49.798;10.022;2023-06-22T09:35:16;31.70;1.00
5779;DHT22;2916;49.798;10.022;2023-06-22T09:37:44;32.20;1.00
5779;DHT22;2916;49.798;10.022;2023-06-22T09:40:12;32.30;1.00
5779;DHT22;2916;49.798;10.022;2023-06-22T09:42:42;33.40;1.00
5779;DHT22;2916;49.798;10.022;2023-06-22T09:45:11;32.80;1.00
5779;DHT22;2916;49.798;10.022;2023-06-22T09:47:38;32.60;1.00
5779;DHT22;2916;49.798;10.022;2023-06-22T09:50:06;32.70;1.00
5779;DHT22;2916;49.798;10.022;2023-06-22T09:52:34;33.10;1.00
5779;DHT22;2916;49.798;10.022;2023-06-22T09:55:01;32.80;1.00
5779;DHT22;2916;49.798;10.022;2023-06-22T09:57:29;32.90;1.00
5779;DHT22;2916;49.798;10.022;2023-06-22T09:59:57;33.50;1.00
5779;DHT22;2916;49.798;10.022;2023-06-22T10:02:25;33.00;1.00
5779;DHT22;2916;49.798;10.022;2023-06-22T10:04:52;33.30;1.00
5779;DHT22;2916;49.798;10.022;2023-06-22T10:07:20;33.10;1.00
5779;DHT22;2916;49.798;10.022;2023-06-22T10:09:47;32.20;1.00
5779;DHT22;2916;49.798;10.022;2023-06-22T10:12:14;32.60;1.00
5779;DHT22;2916;49.798;10.022;2023-06-22T10:14:41;32.40;1.00
5779;DHT22;2916;49.798;10.022;2023-06-22T10:17:08;32.80;1.00
5779;DHT22;2916;49.798;10.022;2023-06-22T10:19:37;33.10;1.00
5779;DHT22;2916;49.798;10.022;2023-06-22T10:22:05;33.00;1.00
5779;DHT22;2916;49.798;10.022;2023-06-22T10:24:32;32.90;1.00
5779;DHT22;2916;49.798;10.022;2023-06-22T10:26:59;32.60;1.00
5779;DHT22;2916;49.798;10.022;2023-06-22T10:29:26;32.80;1.00
5779;DHT22;2916;49.798;10.022;2023-06-22T10:31:54;32.60;1.00
5779;DHT22;2916;49.798;10.022;2023-06-22T10:34:21;32.70;1.00
5779;DHT22;2916;49.798;10.022;2023-06-22T10:36:49;32.90;1.00
5779;DHT22;2916;49.798;10.022;2023-06-22T10:39:16;32.70;1.00
5779;DHT22;2916;49.798;10.022;2023-06-22T10:41:44;32.70;1.00
5779;DHT22;2916;49.798;10.022;2023-06-22T10:44:11;32.70;1.00
5779;DHT22;2916;49.798;10.022;2023-06-22T10:46:39;33.30;1.00
5779;DHT22;2916;49.798;10.022;2023-06-22T10:49:06;33.40;1.00
5779;DHT22;2916;49.798;10.022;2023-06-22T10:51:33;34.10;1.00
5779;DHT22;2916;49.798;10.022;2023-06-22T10:54:02;33.70;1.00
5779;DHT22;2916;49.798;10.022;2023-06-22T10:56:30;33.30;1.00
5779;DHT22;2916;49.798;10.022;2023-06-22T10:58:59;33.40;1.00
5779;DHT22;2916;49.798;10.022;2023-06-22T11:01:27;33.40;1.00
5779;DHT22;2916;49.798;10.022;2023-06-22T11:03:56;32.80;1.00
5779;DHT22;2916;49.798;10.022;2023-06-22T11:06:23;32.50;1.00
5779;DHT22;2916;49.798;10.022;2023-06-22T11:08:51;33.00;1.00
5779;DHT22;2916;49.798;10.022;2023-06-22T11:11:19;32.70;1.00
5779;DHT22;2916;49.798;10.022;2023-06-22T11:13:46;32.50;1.00
5779;DHT22;2916;49.798;10.022;2023-06-22T11:16:13;32.00;1.00
5779;DHT22;2916;49.798;10.022;2023-06-22T11:18:41;32.20;1.00
5779;DHT22;2916;49.798;10.022;2023-06-22T11:21:08;32.50;1.00
5779;DHT22;2916;49.798;10.022;2023-06-22T11:23:35;32.70;1.00
5779;DHT22;2916;49.798;10.022;2023-06-22T11:26:03;33.00;1.00
5779;DHT22;2916;49.798;10.022;2023-06-22T11:28:31;33.50;1.00
5779;DHT22;2916;49.798;10.022;2023-06-22T11:30:58;33.70;1.00
5779;DHT22;2916;49.798;10.022;2023-06-22T11:33:26;33.30;1.00
5779;DHT22;2916;49.798;10.022;2023-06-22T11:35:53;33.00;1.00
5779;DHT22;2916;49.798;10.022;2023-06-22T11:38:22;33.50;1.00
5779;DHT22;2916;49.798;10.022;2023-06-22T11:40:49;33.80;1.00
5779;DHT22;2916;49.798;10.022;2023-06-22T11:43:16;33.40;1.00
5779;DHT22;2916;49.798;10.022;2023-06-22T11:45:44;33.10;1.00
5779;DHT22;2916;49.798;10.022;2023-06-22T11:48:12;33.10;1.00
5779;DHT22;2916;49.798;10.022;2023-06-22T11:50:39;33.30;1.00
5779;DHT22;2916;49.798;10.022;2023-06-22T11:53:06;33.50;1.00
5779;DHT22;2916;49.798;10.022;2023-06-22T11:55:33;33.60;1.00
5779;DHT22;2916;49.798;10.022;2023-06-22T11:58:00;33.50;1.00
5779;DHT22;2916;49.798;10.022;2023-06-22T12:00:29;33.40;1.00
5779;DHT22;2916;49.798;10.022;2023-06-22T12:02:58;33.40;1.00
5779;DHT22;2916;49.798;10.022;2023-06-22T12:05:25;33.70;1.00
5779;DHT22;2916;49.798;10.022;2023-06-22T12:07:53;33.80;1.00
5779;DHT22;2916;49.798;10.022;2023-06-22T12:10:21;33.70;1.00
5779;DHT22;2916;49.798;10.022;2023-06-22T12:12:48;33.90;1.00
5779;DHT22;2916;49.798;10.022;2023-06-22T12:15:16;33.90;1.00
5779;DHT22;2916;49.798;10.022;2023-06-22T12:17:43;33.60;1.00
5779;DHT22;2916;49.798;10.022;2023-06-22T12:20:12;33.60;1.00
5779;DHT22;2916;49.798;10.022;2023-06-22T12:22:40;33.90;1.00
5779;DHT22;2916;49.798;10.022;2023-06-22T12:25:08;33.70;1.00
5779;DHT22;2916;49.798;10.022;2023-06-22T12:27:36;34.20;1.00
5779;DHT22;2916;49.798;10.022;2023-06-22T12:30:05;34.60;1.00
5779;DHT22;2916;49.798;10.022;2023-06-22T12:32:32;34.20;1.00
5779;DHT22;2916;49.798;10.022;2023-06-22T12:35:00;33.80;1.00
5779;DHT22;2916;49.798;10.022;2023-06-22T12:37:28;33.70;1.00
5779;DHT22;2916;49.798;10.022;2023-06-22T12:39:57;33.60;1.00
5779;DHT22;2916;49.798;10.022;2023-06-22T12:42:24;34.00;1.00
5779;DHT22;2916;49.798;10.022;2023-06-22T12:44:51;33.90;1.00
5779;DHT22;2916;49.798;10.022;2023-06-22T12:47:19;33.90;1.00
5779;DHT22;2916;49.798;10.022;2023-06-22T12:49:46;33.50;1.00
5779;DHT22;2916;49.798;10.022;2023-06-22T12:52:13;33.60;1.00
5779;DHT22;2916;49.798;10.022;2023-06-22T12:54:42;33.70;1.00
5779;DHT22;2916;49.798;10.022;2023-06-22T12:57:09;33.60;1.00
5779;DHT22;2916;49.798;10.022;2023-06-22T12:59:36;33.70;1.00
5779;DHT22;2916;49.798;10.022;2023-06-22T13:02:04;33.50;1.00
5779;DHT22;2916;49.798;10.022;2023-06-22T13:04:31;33.40;1.00
5779;DHT22;2916;49.798;10.022;2023-06-22T13:06:59;33.20;1.00
5779;DHT22;2916;49.798;10.022;2023-06-22T13:09:26;33.00;1.00
5779;DHT22;2916;49.798;10.022;2023-06-22T13:11:54;33.10;1.00
5779;DHT22;2916;49.798;10.022;2023-06-22T13:14:21;33.30;1.00
5779;DHT22;2916;49.798;10.022;2023-06-22T13:16:49;33.10;1.00
5779;DHT22;2916;49.798;10.022;2023-06-22T13:19:17;33.20;1.00
5779;DHT22;2916;49.798;10.022;2023-06-22T13:21:44;33.30;1.00
5779;DHT22;2916;49.798;10.022;2023-06-22T13:24:11;33.30;1.00
5779;DHT22;2916;49.798;10.022;2023-06-22T13:26:38;33.30;1.00
5779;DHT22;2916;49.798;10.022;2023-06-22T13:29:07;33.10;1.00
5779;DHT22;2916;49.798;10.022;2023-06-22T13:31:34;33.00;1.00
5779;DHT22;2916;49.798;10.022;2023-06-22T13:34:01;32.90;1.00
5779;DHT22;2916;49.798;10.022;2023-06-22T13:36:28;32.90;1.00
5779;DHT22;2916;49.798;10.022;2023-06-22T13:38:56;32.80;1.00
5779;DHT22;2916;49.798;10.022;2023-06-22T13:41:23;32.80;1.00
5779;DHT22;2916;49.798;10.022;2023-06-22T13:43:51;32.80;1.00
5779;DHT22;2916;49.798;10.022;2023-06-22T13:46:20;32.80;1.00
5779;DHT22;2916;49.798;10.022;2023-06-22T13:48:47;32.80;1.00
5779;DHT22;2916;49.798;10.022;2023-06-22T13:51:14;32.90;1.00
5779;DHT22;2916;49.798;10.022;2023-06-22T13:53:41;33.10;1.00
5779;DHT22;2916;49.798;10.022;2023-06-22T13:56:08;33.30;1.00
5779;DHT22;2916;49.798;10.022;2023-06-22T13:58:36;33.00;1.00
5779;DHT22;2916;49.798;10.022;2023-06-22T14:01:03;33.40;1.00
5779;DHT22;2916;49.798;10.022;2023-06-22T14:03:31;33.20;1.00
5779;DHT22;2916;49.798;10.022;2023-06-22T14:05:58;33.10;1.00
5779;DHT22;2916;49.798;10.022;2023-06-22T14:08:25;33.00;1.00
5779;DHT22;2916;49.798;10.022;2023-06-22T14:10:53;33.10;1.00
5779;DHT22;2916;49.798;10.022;2023-06-22T14:13:20;33.20;1.00
5779;DHT22;2916;49.798;10.022;2023-06-22T14:15:47;33.10;1.00
5779;DHT22;2916;49.798;10.022;2023-06-22T14:18:17;33.00;1.00
5779;DHT22;2916;49.798;10.022;2023-06-22T14:20:46;32.90;1.00
5779;DHT22;2916;49.798;10.022;2023-06-22T14:23:13;32.80;1.00
5779;DHT22;2916;49.798;10.022;2023-06-22T14:25:40;32.80;1.00
5779;DHT22;2916;49.798;10.022;2023-06-22T14:28:08;32.80;1.00
5779;DHT22;2916;49.798;10.022;2023-06-22T14:30:35;32.90;1.00
5779;DHT22;2916;49.798;10.022;2023-06-22T14:33:02;33.00;1.00
5779;DHT22;2916;49.798;10.022;2023-06-22T14:35:29;32.90;1.00
5779;DHT22;2916;49.798;10.022;2023-06-22T14:37:58;32.70;1.00
5779;DHT22;2916;49.798;10.022;2023-06-22T14:40:25;32.80;1.00
5779;DHT22;2916;49.798;10.022;2023-06-22T14:42:52;32.80;1.00
5779;DHT22;2916;49.798;10.022;2023-06-22T14:45:22;32.80;1.00
5779;DHT22;2916;49.798;10.022;2023-06-22T14:47:52;32.80;1.00
5779;DHT22;2916;49.798;10.022;2023-06-22T14:50:19;32.80;1.00
5779;DHT22;2916;49.798;10.022;2023-06-22T14:52:46;32.80;1.00
5779;DHT22;2916;49.798;10.022;2023-06-22T14:55:15;32.90;1.00
5779;DHT22;2916;49.798;10.022;2023-06-22T14:57:42;32.80;1.00
5779;DHT22;2916;49.798;10.022;2023-06-22T15:00:10;32.70;1.00
5779;DHT22;2916;49.798;10.022;2023-06-22T15:02:38;32.80;1.00
5779;DHT22;2916;49.798;10.022;2023-06-22T15:05:08;32.80;1.00
5779;DHT22;2916;49.798;10.022;2023-06-22T15:07:35;32.90;1.00
5779;DHT22;2916;49.798;10.022;2023-06-22T15:10:02;32.90;1.00
5779;DHT22;2916;49.798;10.022;2023-06-22T15:12:31;33.20;1.00
5779;DHT22;2916;49.798;10.022;2023-06-22T15:14:58;33.50;1.00
5779;DHT22;2916;49.798;10.022;2023-06-22T15:17:26;33.50;1.00
5779;DHT22;2916;49.798;10.022;2023-06-22T15:19:57;33.60;1.00
5779;DHT22;2916;49.798;10.022;2023-06-22T15:22:25;33.50;1.00
5779;DHT22;2916;49.798;10.022;2023-06-22T15:24:52;33.40;1.00
5779;DHT22;2916;49.798;10.022;2023-06-22T15:27:19;33.50;1.00
5779;DHT22;2916;49.798;10.022;2023-06-22T15:29:48;33.70;1.00
5779;DHT22;2916;49.798;10.022;2023-06-22T15:32:16;33.70;1.00
5779;DHT22;2916;49.798;10.022;2023-06-22T15:34:43;33.80;1.00
5779;DHT22;2916;49.798;10.022;2023-06-22T15:37:10;33.70;1.00
5779;DHT22;2916;49.798;10.022;2023-06-22T15:39:37;33.90;1.00
5779;DHT22;2916;49.798;10.022;2023-06-22T15:42:05;33.80;1.00
5779;DHT22;2916;49.798;10.022;2023-06-22T15:44:35;33.90;1.00
5779;DHT22;2916;49.798;10.022;2023-06-22T15:47:04;33.90;1.00
5779;DHT22;2916;49.798;10.022;2023-06-22T15:49:31;33.70;1.00
5779;DHT22;2916;49.798;10.022;2023-06-22T15:51:59;33.60;1.00
5779;DHT22;2916;49.798;10.022;2023-06-22T15:54:26;33.60;1.00
5779;DHT22;2916;49.798;10.022;2023-06-22T15:56:53;33.60;1.00
5779;DHT22;2916;49.798;10.022;2023-06-22T15:59:20;33.50;1.00